Historyczne dane pomiarowe

Dodano dane terminowe – wersja testowa.

Dane z okresu 1951-2019

Wersja bazy: 1.34 [2019-03-16, lista zmian], aktualizacja planowana na 2019-04-15

Dane meteo z obszaru Polski uzyskane na podstawie danych udostępnionych przez Instytut Meteorologii i Gospodarki Wodnej – Państwowy Instytut Badawczy.

 

Wybierz Datę:    

       

TemperaturaWilgotnośćWiatrCiśnienieOpadyŚniegCzas trwania zjawisk
 Stacja t tx tn tng RH VA  wxwx mslp ppp RRR   cm mm wxwxwxwxwxwxwx
1983-04-17 6.0 14.5 -2.4- 69.0- 0.0 3.3---- 0.0------------
1983-04-18 7.4 15.1 -1.3- 56.3- 3.0 6.3---- 0.0------------
1983-04-19 9.3 19.4 1.2- 67.0- 4.3 5.7---- 0.0------------
1983-04-20 10.7 18.4 4.3- 75.8- 3.0 3.0---- 0.0------------
1983-04-21 13.5 24.8 2.3- 68.3- 2.7 3.7---- 0.0------------
1983-04-22 15.5 22.2 9.2- 72.3- 7.3 2.0---- 0.9------------
1983-04-23 11.7 18.2 10.0- 92.0- 8.0 1.7---- 0.1------------
1983-04-24 12.5 21.3 5.3- 80.8- 5.0 1.3---- 0.0------------
1983-04-25 12.5 17.8 6.7- 85.3- 2.0 0.7---- 0.0------------
1983-04-26 11.8 22.9 2.8- 79.5- 3.3 2.3---- 6.1------------
1983-04-27 16.9 24.7 5.7- 63.3- 4.3 0.7---- 0.0------------
1983-04-28 13.7 20.2 10.7- 77.0- 5.0 3.7---- 5.7------------
1983-04-29 12.4 21.8 5.1- 82.8- 3.3 0.7---- 0.0------------
1983-04-30 11.6 16.3 9.1- 77.0- 3.3 1.0---- 0.0------------
1983-05-01 11.7 20.5 1.1- 72.8- 0.7 0.7---- 9.3------------
1983-05-02 11.5 17.1 9.2- 92.3- 7.7 3.0---- 16.1------------
1983-05-03 10.5 17.5 8.4- 83.0- 7.7 3.0---- 0.4------------
1983-05-04 9.5 15.8 2.9- 79.5- 4.3 1.7---- 8.8------------
1983-05-05 7.9 12.9 6.8- 88.0- 6.3 2.7---- 1.1------------
1983-05-06 6.6 10.0 4.8- 89.8- 5.3 1.0---- 0.0------------
1983-05-07 7.8 15.8 0.8- 82.8- 5.3 1.3---- 0.0------------
1983-05-08 10.8 17.1 2.4- 66.3- 7.0 3.7---- 0.4------------
1983-05-09 10.6 15.3 8.1- 90.0- 8.0 2.0---- 12.8------------
1983-05-10 11.9 17.0 9.6- 86.8- 5.0 1.0---- 0.0------------
1983-05-11 12.3 19.1 6.0- 83.8- 6.3 2.3---- 1.5------------
1983-05-12 15.1 21.4 10.3- 73.0- 2.3 1.7---- 0.0------------
1983-05-13 18.3 25.2 10.9- 69.0- 4.0 2.3---- 2.2------------
1983-05-14 17.0 22.3 10.6- 81.0- 5.7 1.3---- 0.0------------
1983-05-15 20.0 28.3 12.3- 78.5- 5.7 1.7---- 0.0------------
1983-05-16 23.1 32.0 13.5- 57.8- 1.0 4.7---- 0.0------------
148.2 ms

 

Źródłem pochodzenia danych jest Instytut Meteorologii i Gospodarki Wodnej – Państwowy Instytut Badawczy. Dane Instytutu Meteorologii i Gospodarki Wodnej – Państwowego Instytutu Badawczego zostały przetworzone.

Dane źródłowe można odnaleźć na stronie https://dane.imgw.pl